map of DYG home
DYG - Airport
Location
City:  Zhangjiajie, Hunan, China
Near (Alt.):Dayong
Name:Zhangjiajie Hehua Airport
ICAO:ZGDY
IATA:DYG

Details
Type:Airport (Aerodrome, Airfield)
Latitude:2906'10"N (29.102778)
Longitude:11026'36"E (110.443333)
Elevation:692 ft (211 m)
Variation:3.30W (WMM2015 magnetic declination)
-0.05 annual change
Runways:1
Longest:8530 × 131 ft (2600 × 40 m), paved

Time
Time Zone:UTC+8
Local Time:

Weather
METAR:ZGDY 210700Z VRB02MPS CAVOK 12/M05 Q1028 NOSIG

Related Locations
Nearby:
Farthest:SCTQ: 12418 mi / 19984 km
Alto del Carmen [Tres Quebradas Airport], AT, CL

Find:

   beyond  
but within

Other Information
Maps:
NOTAMs:
Links:
Sources:

  
  • flag of China
  

Sectional Chart

Flight Planning
at skyvector.com

Satellite Image

Google Maps Satellite view

 

Copyright © 2004-2019 Karl L. Swartz. All rights reserved.
The Great Circle Mapper name and logo are trademarks of the Great Circle Mapper.
All other trademarks mentioned herein belong to their respective owners.
Please see credits for attibutions and further copyright information.

  Follow gcmap on Facebook Follow gcmap on Twitter Follow gcmap on Google+ GCmap on LinkedIn

hCard Microformat

Geo Microformat